Terminal Aerodrome Forecast
Issued by NWS

Home | Current Version | Previous Version | Text Only | Print | Product List | Glossary On
Versions: 1 2 3 4 5 6 7 8 9 10 11 12 13 14 15 16 17 18 19 20 21 22 23 24 25 26 27 28 29 30 31 32 33 34 35 36 37 38 39 40 41 42 43 44 45 46 47 48 49
000
FTUS43 KMKX 261120
TAFENW
TAF
KENW 261120Z 2612/2712 23004KT P6SM BKN250
     FM261700 17006KT P6SM BKN250
     FM262300 19007KT P6SM SCT100 BKN250
     FM270300 22005KT P6SM SCT050 BKN120
     FM270600 35011G18KT P6SM BKN050
      TEMPO 2707/2711 BKN030=

USA.gov is the U.S. government's official web portal to all federal, state and local government web resources and services.